createdAt,value
2019-03-19T00:00:51.518Z,0.95
2019-03-19T00:03:59.808Z,1.04
2019-03-19T00:07:07.145Z,0.78
2019-03-19T00:10:14.906Z,0.86
2019-03-19T00:13:22.867Z,0.69
2019-03-19T00:16:30.835Z,0.66
2019-03-19T00:19:38.124Z,0.84
2019-03-19T00:22:45.840Z,0.75
2019-03-19T00:25:53.684Z,0.89
2019-03-19T00:29:01.906Z,1.03
2019-03-19T00:32:09.254Z,0.88
2019-03-19T00:35:17.387Z,1.13
2019-03-19T00:38:25.009Z,1.18
2019-03-19T00:41:32.484Z,1.20
2019-03-19T00:44:39.811Z,1.28
2019-03-19T00:47:47.536Z,1.26
2019-03-19T00:50:55.085Z,1.40
2019-03-19T00:54:04.984Z,1.44
2019-03-19T00:57:12.202Z,1.44
2019-03-19T01:00:19.980Z,1.34
2019-03-19T01:03:27.731Z,1.26
2019-03-19T01:06:36.343Z,1.29
2019-03-19T01:09:44.110Z,1.47
2019-03-19T01:12:51.826Z,1.24
2019-03-19T01:16:01.349Z,1.17
2019-03-19T01:19:08.913Z,1.19
2019-03-19T01:22:16.210Z,1.15
2019-03-19T01:25:23.677Z,1.21
2019-03-19T01:28:31.221Z,1.29
2019-03-19T01:31:38.773Z,1.28
2019-03-19T01:34:46.612Z,1.23
2019-03-19T01:37:54.376Z,1.63
2019-03-19T01:41:01.675Z,1.71
2019-03-19T01:44:09.606Z,1.64
2019-03-19T01:47:16.899Z,1.58
2019-03-19T01:50:24.193Z,1.65
2019-03-19T01:53:31.478Z,1.63
2019-03-19T01:56:38.666Z,1.69
2019-03-19T01:59:46.552Z,1.53
2019-03-19T02:02:54.040Z,1.33
2019-03-19T02:06:01.337Z,1.41
2019-03-19T02:09:09.852Z,1.50
2019-03-19T02:12:17.132Z,1.77
2019-03-19T02:15:24.526Z,1.58
2019-03-19T02:18:31.856Z,1.55
2019-03-19T02:21:39.652Z,1.80
2019-03-19T02:24:47.338Z,1.80
2019-03-19T02:27:54.986Z,1.50
2019-03-19T02:31:02.384Z,1.54
2019-03-19T02:34:09.643Z,1.55
2019-03-19T02:37:16.794Z,1.68
2019-03-19T02:40:23.953Z,1.54
2019-03-19T02:43:31.119Z,1.50
2019-03-19T02:46:38.280Z,1.46
2019-03-19T02:49:45.423Z,1.57
2019-03-19T02:52:52.629Z,1.46
2019-03-19T02:55:59.839Z,1.61
2019-03-19T02:59:07.002Z,1.54
2019-03-19T03:02:14.498Z,1.58
2019-03-19T03:05:22.064Z,1.48
2019-03-19T03:08:29.553Z,1.42
2019-03-19T03:11:36.803Z,1.36
2019-03-19T03:14:46.233Z,1.32
2019-03-19T03:17:53.565Z,1.29
2019-03-19T03:21:00.841Z,1.27
2019-03-19T03:24:07.975Z,1.26
2019-03-19T03:27:15.162Z,1.14
2019-03-19T03:30:22.736Z,1.38
2019-03-19T03:33:30.728Z,1.12
2019-03-19T03:36:38.078Z,0.89
2019-03-19T03:39:45.425Z,0.76
2019-03-19T03:42:52.569Z,0.64
2019-03-19T03:46:00.201Z,0.54
2019-03-19T03:49:07.497Z,0.41
2019-03-19T03:52:14.776Z,0.37
2019-03-19T03:55:22.468Z,0.30
2019-03-19T03:58:29.961Z,0.27
2019-03-19T04:01:37.225Z,0.24
2019-03-19T04:04:44.599Z,0.21
2019-03-19T04:07:52.149Z,0.27
2019-03-19T04:10:59.422Z,0.26
2019-03-19T04:14:06.765Z,0.21
2019-03-19T04:17:13.911Z,0.26
2019-03-19T04:20:21.286Z,0.34
2019-03-19T04:23:28.768Z,0.21
2019-03-19T04:26:36.467Z,0.34
2019-03-19T04:29:44.257Z,0.17
2019-03-19T04:32:51.400Z,0.32
2019-03-19T04:35:58.900Z,0.27
2019-03-19T04:39:07.144Z,0.15
2019-03-19T04:42:14.710Z,0.09
2019-03-19T04:45:22.099Z,-0.03
2019-03-19T04:48:29.233Z,-0.11
2019-03-19T04:51:36.468Z,-0.13
2019-03-19T04:54:44.594Z,-0.13
2019-03-19T04:57:52.321Z,-0.08
2019-03-19T05:01:00.111Z,-0.08
2019-03-19T05:04:07.695Z,-0.12
2019-03-19T05:07:15.013Z,-0.06
2019-03-19T05:10:22.307Z,0.27
2019-03-19T05:13:29.488Z,0.09
2019-03-19T05:16:37.681Z,0.11
2019-03-19T05:19:45.206Z,0.19
2019-03-19T05:22:53.185Z,0.28
2019-03-19T05:26:00.477Z,0.38
2019-03-19T05:29:08.591Z,0.46
2019-03-19T05:32:16.079Z,0.55
2019-03-19T05:35:23.434Z,0.74
2019-03-19T05:38:31.326Z,0.77
2019-03-19T05:41:39.203Z,0.87
2019-03-19T05:44:46.619Z,1.01
2019-03-19T05:47:53.957Z,0.96
2019-03-19T05:51:01.104Z,0.95
2019-03-19T05:54:08.359Z,1.03
2019-03-19T05:57:15.826Z,1.12
2019-03-19T06:00:24.387Z,1.21
2019-03-19T06:03:32.393Z,1.23
2019-03-19T06:06:39.659Z,1.31
2019-03-19T06:09:46.807Z,1.25
2019-03-19T06:12:54.342Z,1.45
2019-03-19T06:16:01.504Z,1.45
2019-03-19T06:19:09.506Z,1.65
2019-03-19T06:22:16.704Z,1.80
2019-03-19T06:25:24.112Z,2.08
2019-03-19T06:28:31.263Z,2.29
2019-03-19T06:31:38.442Z,2.51
2019-03-19T06:34:45.896Z,2.64
2019-03-19T06:37:53.160Z,2.71
2019-03-19T06:41:00.441Z,2.73
2019-03-19T06:44:07.692Z,2.80
2019-03-19T06:47:15.212Z,2.72
2019-03-19T06:50:22.568Z,2.75
2019-03-19T06:53:29.732Z,2.77
2019-03-19T06:56:37.549Z,2.81
2019-03-19T06:59:45.144Z,2.82
2019-03-19T07:02:52.508Z,2.76
2019-03-19T07:05:59.667Z,2.82
2019-03-19T07:09:08.471Z,2.92
2019-03-19T07:12:15.908Z,2.90
2019-03-19T07:15:23.600Z,2.89
2019-03-19T07:18:33.668Z,2.87
2019-03-19T07:21:40.749Z,2.96
2019-03-19T07:24:48.204Z,3.02
2019-03-19T07:27:55.603Z,3.18
2019-03-19T07:31:02.912Z,3.38
2019-03-19T07:34:10.781Z,3.56
2019-03-19T07:37:18.172Z,3.95
2019-03-19T07:40:25.794Z,3.92
2019-03-19T07:43:33.178Z,4.07
2019-03-19T07:46:40.567Z,4.00
2019-03-19T07:49:47.983Z,3.90
2019-03-19T07:52:55.294Z,3.75
2019-03-19T07:56:03.142Z,3.94
2019-03-19T07:59:10.302Z,3.76
2019-03-19T08:02:18.374Z,3.80
2019-03-19T08:05:32.945Z,3.98
2019-03-19T08:08:34.606Z,3.79
2019-03-19T08:11:43.031Z,3.75
2019-03-19T08:14:52.014Z,3.63
2019-03-19T08:17:59.397Z,3.66
2019-03-19T08:21:06.567Z,3.72
2019-03-19T08:24:13.795Z,3.55
2019-03-19T08:27:21.428Z,3.65
2019-03-19T08:30:28.678Z,3.72
2019-03-19T08:33:35.851Z,3.91
2019-03-19T08:36:43.147Z,4.27
2019-03-19T08:39:50.772Z,4.70
2019-03-19T08:42:58.437Z,4.88
2019-03-19T08:46:05.911Z,5.15
2019-03-19T08:49:13.110Z,5.48
2019-03-19T08:52:20.702Z,5.59
2019-03-19T08:55:28.445Z,5.54
2019-03-19T08:58:37.929Z,5.49
2019-03-19T09:01:47.365Z,6.50
2019-03-19T09:04:54.446Z,6.84
2019-03-19T09:08:02.223Z,7.86
2019-03-19T09:11:09.556Z,8.56
2019-03-19T09:14:16.988Z,9.24
2019-03-19T09:17:24.606Z,8.38
2019-03-19T09:20:32.201Z,9.90
2019-03-19T09:23:39.481Z,10.09
2019-03-19T09:26:46.633Z,10.34
2019-03-19T09:29:53.915Z,9.68
2019-03-19T09:33:01.405Z,11.17
2019-03-19T09:36:08.575Z,9.94
2019-03-19T09:39:15.738Z,8.93
2019-03-19T09:42:23.151Z,8.38
2019-03-19T09:45:30.528Z,7.98
2019-03-19T09:48:37.717Z,7.51
2019-03-19T09:51:45.995Z,7.25
2019-03-19T09:54:53.236Z,7.32
2019-03-19T09:58:00.397Z,6.73
2019-03-19T10:01:07.767Z,6.85
2019-03-19T10:04:15.203Z,6.73
2019-03-19T10:07:22.708Z,6.58
2019-03-19T10:10:30.015Z,6.71
2019-03-19T10:13:37.686Z,6.75
2019-03-19T10:16:45.185Z,6.41
2019-03-19T10:19:52.449Z,6.05
2019-03-19T10:22:59.876Z,5.78
2019-03-19T10:26:07.055Z,5.65
2019-03-19T10:29:14.332Z,5.70
2019-03-19T10:32:22.257Z,5.89
2019-03-19T10:35:29.972Z,6.70
2019-03-19T10:38:37.555Z,6.62
2019-03-19T10:41:44.850Z,7.31
2019-03-19T10:44:52.450Z,7.13
2019-03-19T10:47:59.698Z,6.59
2019-03-19T10:51:07.062Z,6.75
2019-03-19T10:54:15.040Z,6.74
2019-03-19T10:57:22.637Z,7.36
2019-03-19T11:00:29.911Z,7.14
2019-03-19T11:03:37.524Z,6.74
2019-03-19T11:06:44.908Z,6.63
2019-03-19T11:09:52.075Z,7.32
2019-03-19T11:13:00.318Z,7.32
2019-03-19T11:16:07.946Z,8.01
2019-03-19T11:19:15.835Z,8.51
2019-03-19T11:22:23.763Z,7.67
2019-03-19T11:25:31.343Z,7.39
2019-03-19T11:28:40.226Z,6.77
2019-03-19T11:31:47.695Z,6.49
2019-03-19T11:34:55.063Z,7.06
2019-03-19T11:38:02.534Z,6.54
2019-03-19T11:41:09.907Z,6.22
2019-03-19T11:44:17.392Z,6.36
2019-03-19T11:47:24.831Z,6.92
2019-03-19T11:50:33.485Z,7.17
2019-03-19T11:53:41.355Z,7.42
2019-03-19T11:56:49.359Z,7.67
2019-03-19T11:59:56.510Z,8.20
2019-03-19T12:03:12.626Z,8.15
2019-03-19T12:06:14.807Z,8.32
2019-03-19T12:09:22.213Z,8.51
2019-03-19T12:12:29.372Z,8.51
2019-03-19T12:15:37.101Z,8.36
2019-03-19T12:18:44.293Z,8.56
2019-03-19T12:21:51.789Z,8.71
2019-03-19T12:24:59.499Z,8.67
2019-03-19T12:28:07.109Z,9.20
2019-03-19T12:31:14.262Z,9.66
2019-03-19T12:34:21.772Z,9.67
2019-03-19T12:37:29.290Z,8.70
2019-03-19T12:40:37.638Z,8.38
2019-03-19T12:43:45.195Z,7.88
2019-03-19T12:46:52.374Z,7.74
2019-03-19T12:50:00.353Z,8.33
2019-03-19T12:53:07.582Z,8.53
2019-03-19T12:56:14.851Z,7.99
2019-03-19T12:59:22.000Z,7.71
2019-03-19T13:02:29.443Z,8.03
2019-03-19T13:05:36.724Z,7.94
2019-03-19T13:08:43.987Z,7.60
2019-03-19T13:11:51.826Z,6.93
2019-03-19T13:14:59.413Z,7.01
2019-03-19T13:21:22.427Z,7.17
2019-03-19T13:24:29.673Z,6.77
2019-03-19T13:27:36.948Z,6.71
2019-03-19T13:30:45.532Z,6.96
2019-03-19T13:33:53.705Z,7.28
2019-03-19T13:37:01.416Z,7.36
2019-03-19T13:40:11.048Z,7.70
2019-03-19T13:43:18.223Z,7.77
2019-03-19T13:46:25.835Z,8.09
2019-03-19T13:49:33.000Z,8.29
2019-03-19T13:52:40.716Z,8.41
2019-03-19T13:55:51.499Z,8.64
2019-03-19T13:58:59.539Z,8.68
2019-03-19T14:02:07.108Z,8.57
2019-03-19T14:05:14.819Z,8.60
2019-03-19T14:08:22.676Z,7.89
2019-03-19T14:11:30.289Z,7.36
2019-03-19T14:14:37.689Z,7.78
2019-03-19T14:17:45.622Z,8.00
2019-03-19T14:20:52.932Z,8.05
2019-03-19T14:24:00.987Z,8.10
2019-03-19T14:27:09.138Z,8.25
2019-03-19T14:30:17.152Z,8.28
2019-03-19T14:33:24.422Z,8.35
2019-03-19T14:36:31.977Z,8.34
2019-03-19T14:39:39.771Z,8.36
2019-03-19T14:42:47.332Z,8.40
2019-03-19T14:45:54.836Z,8.67
2019-03-19T14:49:03.034Z,8.86
2019-03-19T14:52:10.392Z,8.88
2019-03-19T14:55:18.352Z,9.03
2019-03-19T14:58:26.375Z,8.39
2019-03-19T15:01:33.829Z,8.31
2019-03-19T15:04:41.315Z,8.39
2019-03-19T15:07:48.915Z,8.10
2019-03-19T15:10:56.587Z,7.21
2019-03-19T15:14:04.313Z,6.70
2019-03-19T15:17:11.927Z,6.93
2019-03-19T15:20:19.215Z,6.94
2019-03-19T15:23:26.959Z,6.93
2019-03-19T15:26:34.503Z,7.05
2019-03-19T15:29:42.210Z,6.65
2019-03-19T15:32:49.808Z,6.54
2019-03-19T15:35:56.990Z,6.85
2019-03-19T15:39:07.314Z,7.19
2019-03-19T15:42:14.904Z,7.40
2019-03-19T15:45:22.530Z,7.20
2019-03-19T15:48:30.792Z,7.18
2019-03-19T15:51:38.796Z,7.06
2019-03-19T15:54:46.484Z,7.06
2019-03-19T15:57:54.372Z,7.05
2019-03-19T16:01:01.894Z,7.09
2019-03-19T16:04:10.183Z,7.11
2019-03-19T16:07:17.915Z,7.02
2019-03-19T16:10:26.763Z,6.81
2019-03-19T16:13:34.185Z,6.85
2019-03-19T16:16:42.397Z,6.77
2019-03-19T16:19:49.895Z,6.75
2019-03-19T16:22:57.600Z,6.79
2019-03-19T16:26:05.621Z,6.70
2019-03-19T16:29:12.948Z,6.64
2019-03-19T16:32:20.782Z,6.67
2019-03-19T16:35:28.328Z,6.55
2019-03-19T16:38:35.562Z,6.48
2019-03-19T16:41:43.050Z,6.28
2019-03-19T16:44:50.847Z,6.44
2019-03-19T16:47:58.623Z,6.30
2019-03-19T16:51:06.017Z,6.11
2019-03-19T16:54:13.295Z,5.91
2019-03-19T16:57:21.667Z,5.60
2019-03-19T17:00:29.336Z,5.35
2019-03-19T17:03:37.081Z,5.29
2019-03-19T17:06:45.347Z,5.11
2019-03-19T17:09:52.934Z,5.00
2019-03-19T17:13:00.334Z,4.86
2019-03-19T17:16:08.035Z,4.73
2019-03-19T17:19:15.820Z,4.74
2019-03-19T17:22:23.844Z,4.78
2019-03-19T17:25:31.958Z,4.65
2019-03-19T17:28:39.338Z,4.54
2019-03-19T17:31:46.914Z,4.42
2019-03-19T17:34:54.370Z,4.39
2019-03-19T17:38:01.732Z,4.21
2019-03-19T17:41:09.382Z,4.06
2019-03-19T17:44:16.961Z,3.84
2019-03-19T17:47:24.423Z,3.74
2019-03-19T17:50:32.266Z,3.60
2019-03-19T17:53:40.025Z,3.43
2019-03-19T17:56:47.330Z,3.29
2019-03-19T17:59:55.183Z,3.05
2019-03-19T18:03:02.774Z,2.99
2019-03-19T18:06:10.227Z,2.91
2019-03-19T18:09:17.367Z,2.84
2019-03-19T18:12:24.807Z,2.69
2019-03-19T18:15:32.505Z,2.64
2019-03-19T18:18:40.169Z,2.72
2019-03-19T18:21:47.382Z,3.17
2019-03-19T18:24:55.194Z,2.95
2019-03-19T18:28:02.358Z,3.00
2019-03-19T18:31:10.602Z,3.47
2019-03-19T18:34:19.251Z,3.30
2019-03-19T18:37:27.401Z,3.14
2019-03-19T18:40:35.449Z,3.18
2019-03-19T18:43:43.042Z,3.21
2019-03-19T18:46:57.152Z,3.07
2019-03-19T18:50:08.045Z,3.10
2019-03-19T18:53:15.362Z,3.10
2019-03-19T18:56:22.983Z,3.05
2019-03-19T18:59:30.512Z,3.17
2019-03-19T19:02:48.721Z,3.39
2019-03-19T19:05:47.914Z,3.14
2019-03-19T19:08:55.606Z,3.03
2019-03-19T19:12:03.642Z,2.87
2019-03-19T19:15:12.970Z,2.81
2019-03-19T19:18:20.475Z,2.78
2019-03-19T19:21:28.275Z,2.55
2019-03-19T19:24:35.626Z,2.47
2019-03-19T19:27:42.992Z,2.27
2019-03-19T19:30:51.309Z,2.06
2019-03-19T19:33:59.238Z,1.93
2019-03-19T19:37:06.887Z,2.06
2019-03-19T19:40:14.363Z,2.08
2019-03-19T19:43:21.783Z,1.88
2019-03-19T19:46:29.483Z,1.80
2019-03-19T19:49:38.827Z,1.98
2019-03-19T19:52:46.479Z,1.71
2019-03-19T19:55:53.814Z,1.46
2019-03-19T19:59:01.208Z,1.60
2019-03-19T20:02:08.495Z,1.30
2019-03-19T20:05:16.128Z,1.14
2019-03-19T20:08:23.542Z,1.11
2019-03-19T20:11:31.139Z,1.29
2019-03-19T20:17:44.019Z,1.13
2019-03-19T20:20:51.547Z,1.12
2019-03-19T20:23:59.198Z,1.22
2019-03-19T20:27:06.444Z,1.52
2019-03-19T20:30:16.588Z,1.48
2019-03-19T20:33:24.936Z,1.69
2019-03-19T20:36:33.020Z,1.81
2019-03-19T20:39:40.866Z,1.47
2019-03-19T20:42:48.387Z,1.24
2019-03-19T20:45:55.741Z,1.09
2019-03-19T20:49:03.600Z,1.09
2019-03-19T20:52:11.178Z,0.98
2019-03-19T20:55:18.819Z,0.94
2019-03-19T20:58:26.639Z,0.89
2019-03-19T21:01:34.218Z,0.88
2019-03-19T21:04:41.870Z,0.75
2019-03-19T21:07:49.509Z,0.67
2019-03-19T21:10:57.005Z,0.61
2019-03-19T21:14:04.689Z,0.96
2019-03-19T21:17:12.399Z,1.05
2019-03-19T21:20:20.229Z,0.55
2019-03-19T21:23:27.621Z,0.42
2019-03-19T21:26:35.295Z,0.28
2019-03-19T21:29:42.993Z,0.21
2019-03-19T21:32:50.710Z,0.56
2019-03-19T21:35:57.879Z,0.71
2019-03-19T21:39:06.862Z,0.26
2019-03-19T21:42:14.414Z,0.01
2019-03-19T21:45:21.908Z,-0.05
2019-03-19T21:48:29.199Z,0.11
2019-03-19T21:51:36.648Z,0.18
2019-03-19T21:54:44.621Z,0.23
2019-03-19T21:57:52.240Z,0.34
2019-03-19T22:00:59.636Z,0.35
2019-03-19T22:04:08.788Z,0.43
2019-03-19T22:07:16.588Z,0.50
2019-03-19T22:10:23.867Z,0.53
2019-03-19T22:13:31.335Z,0.54
2019-03-19T22:16:38.926Z,0.55
2019-03-19T22:19:46.345Z,0.57
2019-03-19T22:22:53.516Z,0.53
2019-03-19T22:26:00.898Z,0.46
2019-03-19T22:29:08.614Z,0.42
2019-03-19T22:32:15.871Z,0.43
2019-03-19T22:35:23.161Z,0.42
2019-03-19T22:38:30.782Z,0.54
2019-03-19T22:41:38.065Z,0.55
2019-03-19T22:44:45.669Z,0.58
2019-03-19T22:47:53.060Z,0.68
2019-03-19T22:51:00.670Z,0.96
2019-03-19T22:54:07.840Z,0.97
2019-03-19T22:57:15.085Z,0.87
2019-03-19T23:00:39.932Z,0.78
2019-03-19T23:03:47.279Z,0.81
2019-03-19T23:06:54.439Z,0.76
2019-03-19T23:10:02.863Z,1.22
2019-03-19T23:13:12.344Z,1.02
2019-03-19T23:16:20.479Z,1.16
2019-03-19T23:19:28.092Z,0.85
2019-03-19T23:22:35.456Z,0.86
2019-03-19T23:25:42.846Z,0.77
2019-03-19T23:28:49.974Z,0.80
2019-03-19T23:31:57.242Z,0.80
2019-03-19T23:35:05.134Z,0.94
2019-03-19T23:38:12.964Z,1.02
2019-03-19T23:41:20.481Z,1.15
2019-03-19T23:44:28.059Z,0.80
2019-03-19T23:47:35.453Z,0.81
2019-03-19T23:50:42.929Z,0.84
2019-03-19T23:53:51.324Z,0.72
2019-03-19T23:56:59.164Z,0.66
